createdAt,value
2022-11-16T00:01:13.846Z,1.27
2022-11-16T00:03:43.561Z,1.35
2022-11-16T00:06:14.672Z,1.43
2022-11-16T00:09:11.140Z,1.43
2022-11-16T00:11:39.947Z,1.49
2022-11-16T00:14:09.267Z,1.49
2022-11-16T00:16:38.551Z,1.51
2022-11-16T00:19:08.627Z,1.50
2022-11-16T00:21:37.469Z,1.47
2022-11-16T00:24:07.170Z,1.45
2022-11-16T00:26:35.752Z,1.45
2022-11-16T00:29:04.312Z,1.45
2022-11-16T00:31:33.061Z,1.44
2022-11-16T00:34:01.699Z,1.43
2022-11-16T00:36:30.718Z,1.44
2022-11-16T00:38:59.331Z,1.42
2022-11-16T00:41:27.944Z,1.41
2022-11-16T00:43:56.582Z,1.41
2022-11-16T00:46:25.339Z,1.41
2022-11-16T00:48:54.510Z,1.42
2022-11-16T00:51:23.156Z,1.46
2022-11-16T00:53:51.889Z,1.52
2022-11-16T00:56:20.889Z,1.57
2022-11-16T00:58:50.712Z,1.63
2022-11-16T01:01:19.614Z,1.68
2022-11-16T01:03:48.202Z,1.73
2022-11-16T01:06:17.883Z,1.79
2022-11-16T01:08:46.814Z,1.82
2022-11-16T01:11:36.813Z,1.93
2022-11-16T01:14:09.672Z,2.00
2022-11-16T01:16:38.655Z,2.12
2022-11-16T01:19:08.158Z,2.14
2022-11-16T01:21:36.976Z,2.19
2022-11-16T01:24:06.554Z,2.23
2022-11-16T01:26:35.235Z,2.27
2022-11-16T01:29:04.443Z,2.33
2022-11-16T01:31:37.021Z,2.36
2022-11-16T01:34:06.792Z,2.37
2022-11-16T01:36:37.048Z,2.41
2022-11-16T01:39:06.465Z,2.44
2022-11-16T01:42:28.535Z,2.50
2022-11-16T01:45:47.419Z,2.54
2022-11-16T01:48:28.093Z,2.62
2022-11-16T01:50:58.286Z,2.67
2022-11-16T01:53:27.270Z,2.71
2022-11-16T01:55:58.224Z,2.75
2022-11-16T01:58:51.916Z,2.81
2022-11-16T02:01:26.908Z,2.85
2022-11-16T02:03:57.055Z,2.90
2022-11-16T02:06:40.975Z,2.95
2022-11-16T02:09:52.165Z,2.99
2022-11-16T02:12:43.764Z,3.04
2022-11-16T02:15:48.344Z,3.11
2022-11-16T02:18:33.344Z,3.15
2022-11-16T02:21:29.413Z,3.18
2022-11-16T02:24:43.792Z,3.24
2022-11-16T02:27:45.088Z,3.29
2022-11-16T02:30:14.448Z,3.34
2022-11-16T02:32:56.763Z,3.38
2022-11-16T02:35:52.794Z,3.37
2022-11-16T02:38:34.221Z,3.31
2022-11-16T02:41:10.965Z,3.12
2022-11-16T02:43:48.793Z,3.02
2022-11-16T02:46:25.700Z,3.01
2022-11-16T02:49:01.444Z,3.05
2022-11-16T02:51:31.677Z,3.02
2022-11-16T02:54:22.910Z,3.04
2022-11-16T02:57:05.572Z,3.11
2022-11-16T02:59:58.738Z,3.12
2022-11-16T03:02:48.326Z,3.14
2022-11-16T03:05:36.146Z,3.19
2022-11-16T03:08:38.637Z,3.25
2022-11-16T03:11:28.829Z,3.33
2022-11-16T03:14:07.888Z,3.38
2022-11-16T03:16:46.359Z,3.42
2022-11-16T03:19:25.102Z,3.48
2022-11-16T03:22:11.906Z,3.54
2022-11-16T03:24:42.015Z,3.62
2022-11-16T03:27:13.885Z,3.70
2022-11-16T03:30:23.821Z,3.76
2022-11-16T03:33:29.574Z,3.80
2022-11-16T03:36:16.419Z,3.86
2022-11-16T03:38:48.101Z,3.93
2022-11-16T03:41:19.044Z,3.95
2022-11-16T03:43:49.832Z,3.82
2022-11-16T03:46:20.576Z,3.67
2022-11-16T03:48:49.357Z,3.43
2022-11-16T03:51:25.893Z,3.32
2022-11-16T03:53:55.674Z,3.22
2022-11-16T03:56:24.339Z,3.15
2022-11-16T03:58:53.000Z,3.10
2022-11-16T04:01:21.605Z,3.01
2022-11-16T04:03:50.728Z,2.93
2022-11-16T04:06:39.212Z,2.88
2022-11-16T04:09:10.913Z,2.84
2022-11-16T04:11:58.407Z,2.81
2022-11-16T04:14:46.857Z,2.79
2022-11-16T04:17:38.459Z,2.78
2022-11-16T04:20:28.687Z,2.79
2022-11-16T04:23:27.897Z,2.86
2022-11-16T04:25:57.657Z,2.95
2022-11-16T04:28:31.263Z,3.03
2022-11-16T04:31:23.573Z,3.04
2022-11-16T04:34:30.297Z,3.15
2022-11-16T04:37:17.520Z,3.21
2022-11-16T04:39:46.876Z,3.30
2022-11-16T04:42:20.023Z,3.38
2022-11-16T04:45:09.766Z,3.46
2022-11-16T04:47:52.054Z,3.52
2022-11-16T04:50:22.463Z,3.60
2022-11-16T04:52:51.738Z,3.65
2022-11-16T04:55:20.505Z,3.70
2022-11-16T04:57:49.701Z,3.77
2022-11-16T05:00:19.686Z,3.84
2022-11-16T05:02:48.579Z,3.88
2022-11-16T05:05:17.944Z,3.88
2022-11-16T05:07:48.212Z,3.91
2022-11-16T05:10:25.546Z,3.94
2022-11-16T05:12:54.572Z,3.98
2022-11-16T05:15:23.549Z,4.02
2022-11-16T05:17:55.120Z,4.08
2022-11-16T05:20:44.703Z,4.07
2022-11-16T05:23:33.329Z,4.06
2022-11-16T05:26:06.756Z,4.06
2022-11-16T05:28:35.766Z,4.13
2022-11-16T05:31:04.995Z,4.14
2022-11-16T05:33:33.761Z,4.12
2022-11-16T05:36:02.480Z,4.11
2022-11-16T05:38:31.422Z,4.13
2022-11-16T05:41:01.196Z,4.15
2022-11-16T05:43:30.289Z,4.17
2022-11-16T05:46:33.277Z,4.22
2022-11-16T05:49:02.189Z,4.30
2022-11-16T05:51:31.791Z,4.33
2022-11-16T05:54:01.803Z,4.33
2022-11-16T05:56:31.378Z,4.33
2022-11-16T05:59:00.833Z,4.37
2022-11-16T06:01:29.655Z,4.38
2022-11-16T06:04:02.935Z,4.36
2022-11-16T06:06:31.909Z,4.31
2022-11-16T06:09:00.820Z,4.33
2022-11-16T06:11:34.435Z,4.36
2022-11-16T06:14:05.601Z,4.36
2022-11-16T06:16:34.819Z,4.40
2022-11-16T06:19:07.869Z,4.42
2022-11-16T06:21:38.180Z,4.45
2022-11-16T06:24:10.632Z,4.47
2022-11-16T06:26:39.452Z,4.45
2022-11-16T06:29:08.217Z,4.49
2022-11-16T06:31:37.393Z,4.47
2022-11-16T06:34:06.150Z,4.43
2022-11-16T06:36:35.443Z,4.50
2022-11-16T06:39:04.817Z,4.55
2022-11-16T06:41:41.044Z,4.53
2022-11-16T06:44:10.863Z,4.60
2022-11-16T06:46:42.604Z,4.57
2022-11-16T06:49:11.671Z,4.56
2022-11-16T06:51:40.525Z,4.61
2022-11-16T06:54:10.184Z,4.65
2022-11-16T06:56:39.049Z,4.65
2022-11-16T06:59:09.360Z,4.68
2022-11-16T07:01:38.972Z,4.69
2022-11-16T07:04:16.188Z,4.80
2022-11-16T07:06:50.016Z,4.84
2022-11-16T07:09:19.094Z,4.88
2022-11-16T07:11:48.469Z,4.93
2022-11-16T07:14:17.782Z,4.94
2022-11-16T07:16:46.673Z,4.97
2022-11-16T07:19:16.983Z,4.95
2022-11-16T07:21:45.810Z,4.99
2022-11-16T07:24:17.081Z,4.97
2022-11-16T07:26:45.746Z,4.97
2022-11-16T07:29:18.183Z,5.03
2022-11-16T07:32:05.488Z,5.12
2022-11-16T07:34:54.139Z,5.15
2022-11-16T07:37:22.973Z,5.19
2022-11-16T07:39:52.832Z,5.26
2022-11-16T07:42:22.174Z,5.25
2022-11-16T07:45:43.788Z,5.29
2022-11-16T07:48:12.981Z,5.30
2022-11-16T07:51:09.323Z,5.48
2022-11-16T07:53:41.715Z,5.50
2022-11-16T07:56:12.049Z,5.47
2022-11-16T07:58:41.968Z,5.92
2022-11-16T08:01:19.164Z,6.22
2022-11-16T08:03:48.386Z,6.37
2022-11-16T08:06:26.920Z,6.35
2022-11-16T08:08:58.803Z,6.68
2022-11-16T08:11:27.950Z,6.73
2022-11-16T08:13:57.923Z,6.61
2022-11-16T08:16:26.711Z,6.31
2022-11-16T08:19:02.564Z,6.27
2022-11-16T08:21:31.289Z,6.47
2022-11-16T08:24:00.056Z,6.51
2022-11-16T08:26:29.205Z,6.48
2022-11-16T08:29:06.690Z,6.50
2022-11-16T08:31:37.440Z,6.37
2022-11-16T08:34:13.229Z,6.65
2022-11-16T08:36:44.599Z,6.68
2022-11-16T08:39:13.966Z,6.78
2022-11-16T08:41:44.525Z,6.73
2022-11-16T08:44:14.590Z,6.68
2022-11-16T08:46:45.517Z,6.85
2022-11-16T08:50:04.775Z,7.14
2022-11-16T08:52:35.367Z,7.25
2022-11-16T08:55:07.758Z,7.35
2022-11-16T08:57:37.369Z,7.56
2022-11-16T09:00:11.478Z,7.61
2022-11-16T09:02:40.981Z,7.84
2022-11-16T09:05:12.272Z,7.85
2022-11-16T09:07:44.332Z,7.76
2022-11-16T09:10:14.365Z,7.39
2022-11-16T09:12:42.993Z,7.27
2022-11-16T09:15:11.910Z,7.28
2022-11-16T09:17:40.552Z,7.21
2022-11-16T09:20:09.734Z,7.37
2022-11-16T09:22:38.493Z,7.32
2022-11-16T09:25:09.592Z,7.41
2022-11-16T09:27:38.408Z,7.62
2022-11-16T09:30:09.557Z,7.67
2022-11-16T09:32:38.518Z,7.48
2022-11-16T09:35:07.695Z,7.54
2022-11-16T09:37:36.336Z,7.76
2022-11-16T09:40:06.329Z,7.88
2022-11-16T09:43:06.680Z,8.03
2022-11-16T09:46:08.086Z,8.13
2022-11-16T09:48:39.251Z,7.81
2022-11-16T09:51:14.224Z,7.84
2022-11-16T09:53:49.040Z,7.81
2022-11-16T09:56:26.330Z,7.49
2022-11-16T09:59:06.239Z,7.23
2022-11-16T10:01:56.247Z,7.14
2022-11-16T10:04:58.654Z,7.15
2022-11-16T10:07:42.373Z,7.15
2022-11-16T10:10:37.982Z,7.30
2022-11-16T10:13:43.901Z,7.29
2022-11-16T10:16:59.214Z,7.36
2022-11-16T10:19:47.896Z,7.18
2022-11-16T10:22:46.231Z,7.43
2022-11-16T10:25:36.085Z,7.86
2022-11-16T10:28:25.198Z,7.88
2022-11-16T10:31:28.904Z,7.74
2022-11-16T10:33:59.270Z,7.66
2022-11-16T10:36:32.748Z,7.66
2022-11-16T10:39:02.861Z,7.83
2022-11-16T10:41:48.962Z,8.06
2022-11-16T10:44:44.086Z,7.97
2022-11-16T10:47:47.277Z,8.06
2022-11-16T10:50:37.987Z,8.10
2022-11-16T10:53:06.879Z,8.17
2022-11-16T10:55:35.660Z,8.18
2022-11-16T10:58:06.872Z,8.19
2022-11-16T11:00:48.195Z,8.33
2022-11-16T11:07:37.979Z,7.92
2022-11-16T11:24:52.481Z,7.03
2022-11-16T11:27:27.255Z,6.89
2022-11-16T11:29:58.937Z,6.87
2022-11-16T11:32:39.691Z,6.83
2022-11-16T11:35:33.332Z,6.86
2022-11-16T11:38:07.981Z,6.77
2022-11-16T11:40:37.191Z,6.66
2022-11-16T11:43:06.619Z,6.71
2022-11-16T11:45:48.085Z,6.82
2022-11-16T11:48:48.101Z,6.90
2022-11-16T11:51:35.486Z,7.00
2022-11-16T11:54:08.067Z,7.06
2022-11-16T11:56:36.776Z,7.19
2022-11-16T11:59:05.636Z,7.27
2022-11-16T12:02:26.603Z,7.37
2022-11-16T12:05:10.560Z,7.52
2022-11-16T12:08:04.154Z,7.57
2022-11-16T12:10:41.628Z,7.61
2022-11-16T12:13:39.698Z,7.66
2022-11-16T12:16:42.211Z,7.70
2022-11-16T12:19:22.633Z,7.63
2022-11-16T12:22:15.784Z,7.56
2022-11-16T12:25:02.895Z,7.66
2022-11-16T12:32:51.386Z,7.64
2022-11-16T12:35:41.710Z,7.62
2022-11-16T12:38:51.335Z,7.48
2022-11-16T12:41:50.815Z,7.61
2022-11-16T12:44:57.464Z,7.65
2022-11-16T12:48:02.560Z,7.81
2022-11-16T12:51:10.154Z,7.85
2022-11-16T12:54:07.488Z,7.94
2022-11-16T12:57:07.372Z,7.96
2022-11-16T12:59:51.071Z,8.09
2022-11-16T13:03:02.670Z,8.05
2022-11-16T13:06:06.878Z,8.03
2022-11-16T13:09:02.235Z,8.24
2022-11-16T13:11:46.179Z,8.68
2022-11-16T13:14:25.372Z,9.26
2022-11-16T13:16:57.639Z,9.64
2022-11-16T13:19:28.056Z,10.04
2022-11-16T13:22:11.297Z,10.55
2022-11-16T13:24:55.855Z,10.96
2022-11-16T13:28:32.221Z,11.03
2022-11-16T13:31:27.902Z,11.14
2022-11-16T13:34:14.705Z,10.56
2022-11-16T13:36:45.622Z,10.30
2022-11-16T13:39:22.672Z,9.70
2022-11-16T13:42:07.877Z,9.37
2022-11-16T13:44:36.955Z,9.45
2022-11-16T13:47:25.966Z,9.39
2022-11-16T13:50:01.664Z,9.13
2022-11-16T13:53:46.283Z,8.93
2022-11-16T13:55:48.500Z,8.70
2022-11-16T13:58:23.019Z,8.41
2022-11-16T14:01:02.457Z,8.25
2022-11-16T14:03:38.766Z,8.05
2022-11-16T14:06:13.563Z,7.81
2022-11-16T14:08:57.106Z,7.69
2022-11-16T14:11:52.292Z,7.54
2022-11-16T14:15:16.386Z,7.42
2022-11-16T14:18:09.540Z,7.22
2022-11-16T14:20:38.744Z,7.07
2022-11-16T14:23:41.428Z,6.95
2022-11-16T14:26:15.968Z,6.91
2022-11-16T14:29:17.614Z,6.89
2022-11-16T14:32:03.487Z,6.89
2022-11-16T14:34:45.487Z,6.78
2022-11-16T14:37:42.722Z,6.69
2022-11-16T14:40:20.179Z,6.56
2022-11-16T14:43:21.740Z,6.55
2022-11-16T14:45:59.142Z,6.59
2022-11-16T14:48:28.615Z,6.56
2022-11-16T14:51:08.930Z,6.47
2022-11-16T14:53:46.517Z,6.46
2022-11-16T14:56:20.921Z,6.39
2022-11-16T14:59:01.496Z,6.29
2022-11-16T15:01:39.307Z,6.11
2022-11-16T15:04:11.847Z,5.94
2022-11-16T15:07:04.108Z,5.84
2022-11-16T15:09:54.058Z,5.80
2022-11-16T15:12:44.288Z,6.08
2022-11-16T15:15:13.232Z,6.33
2022-11-16T15:17:46.660Z,6.18
2022-11-16T15:20:20.071Z,6.17
2022-11-16T15:22:56.899Z,5.99
2022-11-16T15:25:37.368Z,5.88
2022-11-16T15:28:28.744Z,5.93
2022-11-16T15:31:04.896Z,5.81
2022-11-16T15:33:42.936Z,5.76
2022-11-16T15:36:39.742Z,5.58
2022-11-16T15:39:24.262Z,5.37
2022-11-16T15:41:57.582Z,5.29
2022-11-16T15:44:33.395Z,5.25
2022-11-16T15:47:03.567Z,5.10
2022-11-16T15:49:43.711Z,5.01
2022-11-16T15:52:12.535Z,4.89
2022-11-16T15:54:59.996Z,4.75
2022-11-16T15:57:28.936Z,4.73
2022-11-16T15:59:58.238Z,4.66
2022-11-16T16:02:31.900Z,4.52
2022-11-16T16:05:00.741Z,4.40
2022-11-16T16:07:44.043Z,4.26
2022-11-16T16:10:18.904Z,4.31
2022-11-16T16:12:55.999Z,4.17
2022-11-16T16:15:36.946Z,4.09
2022-11-16T16:18:40.050Z,4.13
2022-11-16T16:21:10.788Z,4.27
2022-11-16T16:23:52.039Z,4.24
2022-11-16T16:26:22.543Z,4.22
2022-11-16T16:28:52.308Z,4.12
2022-11-16T16:31:21.118Z,3.99
2022-11-16T16:33:50.629Z,3.90
2022-11-16T16:36:19.437Z,3.82
2022-11-16T16:38:48.341Z,3.87
2022-11-16T16:41:24.087Z,3.81
2022-11-16T16:43:53.694Z,3.74
2022-11-16T16:46:22.647Z,3.70
2022-11-16T16:48:51.343Z,3.63
2022-11-16T16:51:20.101Z,3.61
2022-11-16T16:53:49.167Z,3.65
2022-11-16T16:56:19.997Z,3.77
2022-11-16T16:58:49.001Z,3.65
2022-11-16T17:01:18.048Z,3.54
2022-11-16T17:03:47.205Z,3.74
2022-11-16T17:06:16.140Z,4.07
2022-11-16T17:08:45.062Z,3.96
2022-11-16T17:11:16.233Z,3.72
2022-11-16T17:13:45.073Z,3.53
2022-11-16T17:16:13.922Z,3.43
2022-11-16T17:18:44.713Z,3.42
2022-11-16T17:21:13.448Z,3.71
2022-11-16T17:23:42.185Z,3.62
2022-11-16T17:26:11.210Z,3.45
2022-11-16T17:28:40.991Z,3.32
2022-11-16T17:31:11.717Z,3.22
2022-11-16T17:33:43.203Z,3.10
2022-11-16T17:36:14.876Z,3.04
2022-11-16T17:38:44.160Z,3.05
2022-11-16T17:41:19.411Z,3.28
2022-11-16T17:43:51.842Z,3.35
2022-11-16T17:46:24.088Z,3.31
2022-11-16T17:48:52.961Z,3.27
2022-11-16T17:51:24.673Z,3.28
2022-11-16T17:53:53.470Z,3.20
2022-11-16T17:56:28.951Z,3.09
2022-11-16T17:59:00.802Z,3.43
2022-11-16T18:01:29.952Z,3.65
2022-11-16T18:04:01.403Z,3.78
2022-11-16T18:06:30.007Z,3.72
2022-11-16T18:08:58.769Z,3.75
2022-11-16T18:11:28.453Z,3.67
2022-11-16T18:14:05.882Z,3.59
2022-11-16T18:16:34.816Z,3.71
2022-11-16T18:19:06.407Z,3.80
2022-11-16T18:21:42.563Z,3.69
2022-11-16T18:24:12.444Z,3.54
2022-11-16T18:26:41.860Z,3.42
2022-11-16T18:29:18.855Z,3.32
2022-11-16T18:31:47.486Z,3.18
2022-11-16T18:34:16.371Z,3.19
2022-11-16T18:36:46.831Z,3.07
2022-11-16T18:39:15.617Z,3.13
2022-11-16T18:41:51.692Z,2.98
2022-11-16T18:44:23.848Z,2.85
2022-11-16T18:46:52.658Z,2.74
2022-11-16T18:49:21.528Z,2.59
2022-11-16T18:51:51.072Z,2.88
2022-11-16T18:54:19.736Z,2.97
2022-11-16T18:56:49.232Z,2.87
2022-11-16T18:59:18.015Z,2.94
2022-11-16T19:01:49.567Z,2.73
2022-11-16T19:04:18.432Z,2.59
2022-11-16T19:06:47.189Z,2.89
2022-11-16T19:09:15.830Z,3.04
2022-11-16T19:11:44.758Z,2.85
2022-11-16T19:14:14.054Z,2.68
2022-11-16T19:16:52.468Z,2.68
2022-11-16T19:19:25.534Z,2.72
2022-11-16T19:21:56.647Z,2.54
2022-11-16T19:24:25.409Z,2.40
2022-11-16T19:26:54.283Z,2.53
2022-11-16T19:29:22.993Z,2.74
2022-11-16T19:31:51.688Z,2.55
2022-11-16T19:34:20.377Z,2.35
2022-11-16T19:36:49.003Z,2.28
2022-11-16T19:39:17.664Z,2.58
2022-11-16T19:41:46.481Z,2.48
2022-11-16T19:44:15.103Z,2.28
2022-11-16T19:46:43.811Z,2.13
2022-11-16T19:49:19.556Z,1.99
2022-11-16T19:51:49.619Z,1.89
2022-11-16T19:54:18.641Z,1.83
2022-11-16T19:56:53.654Z,1.82
2022-11-16T19:59:24.587Z,1.70
2022-11-16T20:01:53.475Z,1.71
2022-11-16T20:04:22.158Z,1.85
2022-11-16T20:06:51.093Z,2.03
2022-11-16T20:09:20.365Z,2.09
2022-11-16T20:11:49.255Z,2.24
2022-11-16T20:14:18.291Z,2.18
2022-11-16T20:16:50.002Z,2.47
2022-11-16T20:19:20.003Z,2.33
2022-11-16T20:21:48.815Z,2.35
2022-11-16T20:24:18.358Z,2.26
2022-11-16T20:26:49.298Z,2.21
2022-11-16T20:29:19.394Z,2.47
2022-11-16T20:31:48.285Z,2.33
2022-11-16T20:34:17.942Z,2.12
2022-11-16T20:36:48.143Z,1.96
2022-11-16T20:39:20.230Z,1.87
2022-11-16T20:41:49.059Z,1.90
2022-11-16T20:44:22.462Z,1.82
2022-11-16T20:46:54.733Z,1.79
2022-11-16T20:49:24.232Z,1.79
2022-11-16T20:51:53.061Z,1.68
2022-11-16T20:54:22.014Z,1.65
2022-11-16T20:56:51.213Z,1.67
2022-11-16T20:59:20.210Z,1.74
2022-11-16T21:01:52.756Z,1.86
2022-11-16T21:04:22.086Z,1.86
2022-11-16T21:06:50.909Z,1.89
2022-11-16T21:09:23.009Z,1.85
2022-11-16T21:12:10.564Z,1.91
2022-11-16T21:14:39.454Z,1.89
2022-11-16T21:17:08.361Z,1.89
2022-11-16T21:19:37.250Z,2.03
2022-11-16T21:22:06.044Z,2.08
2022-11-16T21:24:35.124Z,1.95
2022-11-16T21:27:03.911Z,1.95
2022-11-16T21:29:32.805Z,2.06
2022-11-16T21:32:02.724Z,2.15
2022-11-16T21:34:34.637Z,2.20
2022-11-16T21:37:06.180Z,2.07
2022-11-16T21:39:34.822Z,2.23
2022-11-16T21:42:04.033Z,2.48
2022-11-16T21:44:42.437Z,2.43
2022-11-16T21:47:12.202Z,2.39
2022-11-16T21:50:00.876Z,2.27
2022-11-16T21:52:30.112Z,2.16
2022-11-16T21:55:01.775Z,2.05
2022-11-16T21:57:30.547Z,1.96
2022-11-16T22:00:01.286Z,2.20
2022-11-16T22:02:40.533Z,2.45
2022-11-16T22:05:28.454Z,2.58
2022-11-16T22:07:57.593Z,2.44
2022-11-16T22:10:26.454Z,2.26
2022-11-16T22:12:55.255Z,2.11
2022-11-16T22:15:24.022Z,1.99
2022-11-16T22:17:52.818Z,1.92
2022-11-16T22:20:22.363Z,1.81
2022-11-16T22:22:51.121Z,1.72
2022-11-16T22:25:20.129Z,1.64
2022-11-16T22:28:18.555Z,1.51
2022-11-16T22:30:38.493Z,1.40
2022-11-16T22:33:07.174Z,1.35
2022-11-16T22:35:38.705Z,1.32
2022-11-16T22:38:07.493Z,1.32
2022-11-16T22:40:36.284Z,1.41
2022-11-16T22:43:05.073Z,1.39
2022-11-16T22:45:33.885Z,1.39
2022-11-16T22:48:02.651Z,1.33
2022-11-16T22:50:31.548Z,1.25
2022-11-16T22:53:00.453Z,1.20
2022-11-16T22:55:29.340Z,1.26
2022-11-16T22:57:58.128Z,1.24
2022-11-16T23:00:27.016Z,1.57
2022-11-16T23:02:56.140Z,1.63
2022-11-16T23:05:25.215Z,1.56
2022-11-16T23:07:57.170Z,1.70
2022-11-16T23:10:25.863Z,1.53
2022-11-16T23:13:13.189Z,1.53
2022-11-16T23:15:50.772Z,1.65
2022-11-16T23:18:20.026Z,2.03
2022-11-16T23:21:44.780Z,2.04
2022-11-16T23:24:34.256Z,2.21
2022-11-16T23:27:23.011Z,2.33
2022-11-16T23:29:53.847Z,2.37
2022-11-16T23:32:22.738Z,2.56
2022-11-16T23:34:51.622Z,2.72
2022-11-16T23:37:20.722Z,2.74
2022-11-16T23:39:50.324Z,2.70
2022-11-16T23:42:37.858Z,2.53
2022-11-16T23:45:07.645Z,2.62
2022-11-16T23:47:36.361Z,2.55
2022-11-16T23:50:06.116Z,2.51
2022-11-16T23:52:34.873Z,2.60
2022-11-16T23:55:04.265Z,2.68
2022-11-16T23:57:33.054Z,2.74
